Time;durP1;ratioP1;P1;durP2;ratioP2;P2;SDS_P1;SDS_P2;PMS_P1;PMS_P2;Temp;Humidity;BMP_temperature;BMP_pressure;BME280_temperature;BME280_humidity;BME280_pressure;Samples;Min_cycle;Max_cycle;Signal;HPM_P1;HPM_P2
2022/04/24 00:01:56;;;;;;;;;61.00;48.25;27.10;99.90;;;;;;5020617;28;8759;-65
2022/04/24 00:04:24;;;;;;;;;62.40;48.80;27.20;99.90;;;;;;5021244;28;8873;-64
2022/04/24 00:06:53;;;;;;;;;63.50;46.50;27.20;99.90;;;;;;5045972;28;8879;-65
2022/04/24 00:09:23;;;;;;;;;62.00;48.50;27.20;99.90;;;;;;5058353;28;8755;-64
2022/04/24 00:11:50;;;;;;;;;64.00;49.00;27.10;99.90;;;;;;5059931;28;8722;-65
2022/04/24 00:14:17;;;;;;;;;62.75;49.25;27.00;99.90;;;;;;5042249;28;9431;-65
2022/04/24 00:16:46;;;;;;;;;69.60;54.00;27.20;99.90;;;;;;5059642;28;8762;-65
2022/04/24 00:19:12;;;;;;;;;63.75;49.50;27.30;99.90;;;;;;5060526;28;8742;-65
2022/04/24 00:21:42;;;;;;;;;64.50;48.50;27.40;99.90;;;;;;5059707;28;8806;-65
2022/04/24 00:24:08;;;;;;;;;62.00;48.75;27.40;99.90;;;;;;5059848;28;8723;-65
2022/04/24 00:26:35;;;;;;;;;57.75;46.50;27.40;99.90;;;;;;5059955;28;8865;-65
2022/04/24 00:29:02;;;;;;;;;59.75;48.25;27.40;99.90;;;;;;5059612;28;8851;-65
2022/04/24 00:31:28;;;;;;;;;63.00;50.00;27.40;99.90;;;;;;5059469;28;8757;-65
2022/04/24 00:33:55;;;;;;;;;60.50;48.75;27.50;99.90;;;;;;5059967;28;8743;-65
2022/04/24 00:36:21;;;;;;;;;61.75;48.75;27.50;99.90;;;;;;5047708;28;8766;-65
2022/04/24 00:38:48;;;;;;;;;56.50;45.00;27.50;99.90;;;;;;5039936;28;8744;-65
2022/04/24 00:41:15;;;;;;;;;61.25;47.75;27.50;99.90;;;;;;5039860;28;8741;-65
2022/04/24 00:43:42;;;;;;;;;64.50;49.00;27.50;99.90;;;;;;5039283;28;8804;-64
2022/04/24 00:46:45;;;;;;;;;52.50;43.75;27.60;99.90;;;;;;5005549;28;8793;-64
2022/04/24 00:49:12;;;;;;;;;52.25;41.25;27.60;99.90;;;;;;5039950;28;8726;-65
2022/04/24 00:51:39;;;;;;;;;46.00;37.50;27.60;99.90;;;;;;5042912;28;8775;-65
2022/04/24 00:54:10;;;;;;;;;49.50;39.75;27.70;99.90;;;;;;5059134;28;8774;-65
2022/04/24 00:56:37;;;;;;;;;48.00;38.75;27.70;99.90;;;;;;5057840;28;8751;-65
2022/04/24 00:59:05;;;;;;;;;51.25;41.25;27.70;99.90;;;;;;5059080;28;8787;-65
2022/04/24 01:01:33;;;;;;;;;47.00;35.75;27.70;99.90;;;;;;5059162;28;12355;-65
2022/04/24 01:04:03;;;;;;;;;45.50;35.75;27.80;99.90;;;;;;5041853;28;8735;-65
2022/04/24 01:06:39;;;;;;;;;50.50;42.75;27.80;99.90;;;;;;5058750;28;9181;-65
2022/04/24 01:09:13;;;;;;;;;52.75;41.25;27.90;99.90;;;;;;5041040;28;8743;-65
2022/04/24 01:11:40;;;;;;;;;51.50;39.25;27.90;99.90;;;;;;5058823;28;9364;-65
2022/04/24 01:14:07;;;;;;;;;44.75;36.00;27.90;99.90;;;;;;5058979;28;8771;-65
2022/04/24 01:16:35;;;;;;;;;47.25;39.25;28.00;99.90;;;;;;5058565;28;8781;-65
2022/04/24 01:19:02;;;;;;;;;49.50;39.00;28.00;99.90;;;;;;5059370;28;8771;-65
2022/04/24 01:21:29;;;;;;;;;42.50;35.00;28.10;99.90;;;;;;5058366;28;8824;-65
2022/04/24 01:23:55;;;;;;;;;48.25;39.25;28.10;99.90;;;;;;5058834;28;8742;-65
2022/04/24 01:26:22;;;;;;;;;41.50;36.00;28.20;99.90;;;;;;5057891;28;8762;-65
2022/04/24 01:28:49;;;;;;;;;48.25;37.00;28.20;99.90;;;;;;5040792;28;8728;-65
2022/04/24 01:31:16;;;;;;;;;46.00;36.00;28.20;99.90;;;;;;5059139;28;8789;-65
2022/04/24 01:33:43;;;;;;;;;41.25;34.75;28.20;99.90;;;;;;5040697;28;8789;-65
2022/04/24 01:36:09;;;;;;;;;47.75;35.50;28.20;99.90;;;;;;5058488;28;8914;-65
2022/04/24 01:38:36;;;;;;;;;43.50;34.25;28.30;99.90;;;;;;5038020;28;8769;-65
2022/04/24 01:41:03;;;;;;;;;46.00;37.25;28.40;99.90;;;;;;5038555;28;8847;-65
2022/04/24 01:43:30;;;;;;;;;42.75;36.00;28.40;99.90;;;;;;5020536;28;8801;-65
2022/04/24 01:45:56;;;;;;;;;39.75;34.50;28.40;99.90;;;;;;5038559;28;8765;-59
2022/04/24 01:48:23;;;;;;;;;44.75;35.75;28.40;99.90;;;;;;5038693;28;8757;-65
2022/04/24 01:50:56;;;;;;;;;45.50;36.75;28.40;99.90;;;;;;5038374;28;9437;-66
2022/04/24 01:53:23;;;;;;;;;36.00;30.50;28.50;99.90;;;;;;5056443;28;8911;-65
2022/04/24 01:55:50;;;;;;;;;46.25;38.25;28.50;99.90;;;;;;5040076;28;9423;-65
2022/04/24 01:58:16;;;;;;;;;46.50;36.50;28.60;99.90;;;;;;5058619;28;8769;-66
2022/04/24 02:00:46;;;;;;;;;43.25;35.75;28.60;99.90;;;;;;5057861;28;8778;-65
2022/04/24 02:03:13;;;;;;;;;44.25;35.50;28.60;99.90;;;;;;5058055;28;8775;-66
2022/04/24 02:05:39;;;;;;;;;39.75;33.25;28.60;99.90;;;;;;5057666;28;8798;-66
2022/04/24 02:08:06;;;;;;;;;47.75;39.50;28.60;99.90;;;;;;5058060;28;8762;-65
2022/04/24 02:10:33;;;;;;;;;47.00;35.00;28.70;99.90;;;;;;5057433;28;8968;-65
2022/04/24 02:13:00;;;;;;;;;44.25;35.00;28.80;99.90;;;;;;5057444;28;8777;-65
2022/04/24 02:15:27;;;;;;;;;43.75;36.00;28.90;99.90;;;;;;5057529;28;9490;-65
2022/04/24 02:17:54;;;;;;;;;45.00;35.75;28.90;99.90;;;;;;5057329;28;8871;-65
2022/04/24 02:20:21;;;;;;;;;41.75;33.50;28.90;99.90;;;;;;5057398;28;8771;-64
2022/04/24 02:22:47;;;;;;;;;40.75;34.75;28.90;99.90;;;;;;5057257;28;8787;-65
2022/04/24 02:25:15;;;;;;;;;40.25;35.00;29.00;99.90;;;;;;5023713;28;9412;-65
2022/04/24 02:27:42;;;;;;;;;30.50;29.00;29.10;99.90;;;;;;5057347;28;8755;-65
2022/04/24 02:30:09;;;;;;;;;44.25;34.25;29.00;99.90;;;;;;5040024;28;9416;-65
2022/04/24 02:32:36;;;;;;;;;46.50;35.50;29.00;99.90;;;;;;5057346;28;8782;-65
2022/04/24 02:35:02;;;;;;;;;43.00;36.50;29.10;99.90;;;;;;5057465;28;8851;-65
2022/04/24 02:37:32;;;;;;;;;40.25;34.75;29.10;99.90;;;;;;5039216;28;8751;-65
2022/04/24 02:39:59;;;;;;;;;34.00;29.75;29.10;99.90;;;;;;5057911;28;8766;-65
2022/04/24 02:42:25;;;;;;;;;43.00;35.50;29.20;99.90;;;;;;5056832;28;8739;-65
2022/04/24 02:44:52;;;;;;;;;37.00;30.25;29.30;99.90;;;;;;5057407;28;8731;-65
2022/04/24 02:47:19;;;;;;;;;41.50;33.25;29.30;99.90;;;;;;5022700;28;8809;-64
2022/04/24 02:49:45;;;;;;;;;47.25;37.00;29.30;99.90;;;;;;5056915;28;8814;-65
2022/04/24 02:52:12;;;;;;;;;45.00;38.50;29.40;99.90;;;;;;5057352;28;8828;-65
2022/04/24 02:54:40;;;;;;;;;41.25;34.75;29.40;99.90;;;;;;5056855;28;8869;-65
2022/04/24 02:57:07;;;;;;;;;40.50;31.50;29.50;99.90;;;;;;5056933;28;9569;-65
2022/04/24 02:59:34;;;;;;;;;44.25;36.00;29.50;99.90;;;;;;5056564;28;8747;-65
2022/04/24 03:02:00;;;;;;;;;43.75;35.00;29.50;99.90;;;;;;5057040;28;8801;-65
2022/04/24 03:04:27;;;;;;;;;45.50;35.25;29.50;99.90;;;;;;5055791;28;8735;-64
2022/04/24 03:06:53;;;;;;;;;44.50;36.50;29.60;99.90;;;;;;5057446;28;8751;-65
2022/04/24 03:09:20;;;;;;;;;48.25;36.25;29.70;99.90;;;;;;5056336;28;8935;-64
2022/04/24 03:11:47;;;;;;;;;45.50;36.75;29.70;99.90;;;;;;5056772;28;8739;-65
2022/04/24 03:14:13;;;;;;;;;45.50;35.25;29.70;99.90;;;;;;5056883;28;8834;-65
2022/04/24 03:16:40;;;;;;;;;45.00;37.00;29.80;99.90;;;;;;5056575;28;9780;-65
2022/04/24 03:19:07;;;;;;;;;48.50;37.25;30.00;99.90;;;;;;5056083;28;8782;-65
2022/04/24 03:21:34;;;;;;;;;47.75;37.25;30.00;99.90;;;;;;5056470;28;8787;-65
2022/04/24 03:24:01;;;;;;;;;39.25;33.50;30.00;99.90;;;;;;5056364;28;8727;-65
2022/04/24 03:26:27;;;;;;;;;45.50;35.75;30.10;99.90;;;;;;5038805;28;8727;-64
2022/04/24 03:28:54;;;;;;;;;47.75;38.50;30.00;99.90;;;;;;5056272;28;9391;-65
2022/04/24 03:31:20;;;;;;;;;44.50;33.75;30.00;99.90;;;;;;5038695;28;9412;-65
2022/04/24 03:33:47;;;;;;;;;37.00;30.25;30.10;99.90;;;;;;5056246;28;8759;-65
2022/04/24 03:36:14;;;;;;;;;47.00;37.00;30.20;99.90;;;;;;5056062;28;8860;-65
2022/04/24 03:38:40;;;;;;;;;48.50;37.25;30.20;99.90;;;;;;5022142;28;8877;-64
2022/04/24 03:41:08;;;;;;;;;47.75;39.25;30.20;99.90;;;;;;5056075;28;8841;-64
2022/04/24 03:43:34;;;;;;;;;43.25;35.25;30.30;99.90;;;;;;5056407;28;8770;-65
2022/04/24 03:46:01;;;;;;;;;37.25;30.75;30.30;99.90;;;;;;5045838;28;8767;-65
2022/04/24 03:48:28;;;;;;;;;44.75;36.25;30.40;99.90;;;;;;5038515;28;9842;-65
2022/04/24 03:50:55;;;;;;;;;47.25;39.00;30.50;99.90;;;;;;5056504;28;8778;-65
2022/04/24 03:53:21;;;;;;;;;45.75;35.75;30.50;99.90;;;;;;5055909;28;8783;-64
2022/04/24 03:55:48;;;;;;;;;49.75;40.25;30.50;99.90;;;;;;5056202;28;8888;-65
2022/04/24 03:58:15;;;;;;;;;48.75;38.50;30.50;99.90;;;;;;5057007;28;8735;-65
2022/04/24 04:00:41;;;;;;;;;44.75;36.00;30.70;99.90;;;;;;5056388;28;9372;-65
2022/04/24 04:03:08;;;;;;;;;46.25;37.75;30.70;99.90;;;;;;5038692;28;9430;-65
2022/04/24 04:05:38;;;;;;;;;41.00;33.00;30.90;99.90;;;;;;5056284;28;8767;-65
2022/04/24 04:08:05;;;;;;;;;37.50;33.25;31.00;99.90;;;;;;5055925;28;8783;-65
2022/04/24 04:10:32;;;;;;;;;43.75;36.50;31.00;99.90;;;;;;5055319;28;8731;-65
2022/04/24 04:12:58;;;;;;;;;41.00;36.00;30.70;99.90;;;;;;5056496;28;8766;-64
2022/04/24 04:15:25;;;;;;;;;44.50;35.50;30.80;99.90;;;;;;5055750;28;8837;-65
2022/04/24 04:17:52;;;;;;;;;45.25;37.00;30.90;99.90;;;;;;5056008;28;8762;-65
2022/04/24 04:20:19;;;;;;;;;43.25;34.75;30.90;99.90;;;;;;5055762;28;9339;-65
2022/04/24 04:22:51;;;;;;;;;46.00;36.75;30.90;99.90;;;;;;5055738;28;8789;-65
2022/04/24 04:25:22;;;;;;;;;39.50;33.50;30.80;99.90;;;;;;5056317;28;8766;-63
2022/04/24 04:27:49;;;;;;;;;47.00;38.50;31.00;99.90;;;;;;5055637;28;8766;-65
2022/04/24 04:30:15;;;;;;;;;45.75;38.00;31.10;99.90;;;;;;5058605;28;8766;-65
2022/04/24 04:32:42;;;;;;;;;44.75;36.75;31.10;99.90;;;;;;5059605;28;8786;-65
2022/04/24 04:35:12;;;;;;;;;45.75;35.00;31.20;99.90;;;;;;5059598;28;8775;-65
2022/04/24 04:37:42;;;;;;;;;43.75;35.50;31.20;99.90;;;;;;5042192;28;8828;-64
2022/04/24 04:40:12;;;;;;;;;45.25;37.25;31.20;99.90;;;;;;5042660;28;8780;-65
2022/04/24 04:42:39;;;;;;;;;42.75;34.75;31.30;99.90;;;;;;5041971;28;8800;-65
2022/04/24 04:45:06;;;;;;;;;45.50;37.25;31.30;99.90;;;;;;5059311;28;9906;-65
2022/04/24 04:47:33;;;;;;;;;42.25;34.50;31.50;99.90;;;;;;5041535;28;8837;-65
2022/04/24 04:50:00;;;;;;;;;46.75;37.75;31.50;99.90;;;;;;5041791;28;8783;-65
2022/04/24 04:52:26;;;;;;;;;46.00;36.00;31.50;99.90;;;;;;5058947;28;9897;-64
2022/04/24 04:54:53;;;;;;;;;48.00;38.00;31.60;99.90;;;;;;5059860;28;8754;-65
2022/04/24 04:57:20;;;;;;;;;44.75;37.00;31.70;99.90;;;;;;5059128;28;8759;-64
2022/04/24 04:59:46;;;;;;;;;38.25;33.00;31.80;99.90;;;;;;5059234;28;8766;-65
2022/04/24 05:02:13;;;;;;;;;46.25;36.50;31.90;99.90;;;;;;5059485;28;8778;-65
2022/04/24 05:04:43;;;;;;;;;53.00;40.25;31.80;99.90;;;;;;5041102;28;8761;-65
2022/04/24 05:07:11;;;;;;;;;44.75;37.50;31.60;99.90;;;;;;5059318;28;8777;-65
2022/04/24 05:09:38;;;;;;;;;46.25;38.00;31.60;99.90;;;;;;5058859;28;8828;-65
2022/04/24 05:12:05;;;;;;;;;41.50;35.25;31.70;99.90;;;;;;5059232;28;8818;-65
2022/04/24 05:14:32;;;;;;;;;47.25;38.75;31.60;99.90;;;;;;5058656;28;8751;-64
2022/04/24 05:16:59;;;;;;;;;44.00;35.75;31.80;99.90;;;;;;5058615;28;8747;-65
2022/04/24 05:19:25;;;;;;;;;44.50;36.75;31.90;99.90;;;;;;5058479;28;9438;-64
2022/04/24 05:21:55;;;;;;;;;44.25;37.75;31.90;99.90;;;;;;5059181;28;8743;-65
2022/04/24 05:24:22;;;;;;;;;48.00;37.75;31.90;99.90;;;;;;5058469;28;8758;-65
2022/04/24 05:26:48;;;;;;;;;48.75;39.00;32.10;99.90;;;;;;5058673;28;8743;-65
2022/04/24 05:29:15;;;;;;;;;47.50;37.50;32.10;99.90;;;;;;5041451;28;8723;-65
2022/04/24 05:31:42;;;;;;;;;49.25;39.75;32.00;99.90;;;;;;5024323;28;8813;-65
2022/04/24 05:34:09;;;;;;;;;42.00;33.75;31.90;99.90;;;;;;5059136;28;8735;-65
2022/04/24 05:36:35;;;;;;;;;44.00;36.50;31.90;99.90;;;;;;5058040;28;8807;-65
2022/04/24 05:39:02;;;;;;;;;43.00;33.50;32.00;99.90;;;;;;5058344;28;8885;-65
2022/04/24 05:41:29;;;;;;;;;43.25;35.00;32.20;99.90;;;;;;5057783;28;8778;-65
2022/04/24 05:43:55;;;;;;;;;42.25;35.75;32.70;99.90;;;;;;5058675;28;8766;-64
2022/04/24 05:46:22;;;;;;;;;34.75;31.25;33.60;99.90;;;;;;5058884;28;8791;-64
2022/04/24 05:48:49;;;;;;;;;41.25;34.25;34.10;99.40;;;;;;5058361;28;8770;-61
2022/04/24 05:51:15;;;;;;;;;38.25;31.50;33.90;99.70;;;;;;5040902;28;8763;-65
2022/04/24 05:53:42;;;;;;;;;41.25;32.00;33.70;99.40;;;;;;5058197;28;8855;-65
2022/04/24 05:56:09;;;;;;;;;43.00;34.75;33.40;99.20;;;;;;5058137;28;8809;-65
2022/04/24 05:58:38;;;;;;;;;34.50;30.00;34.10;99.60;;;;;;5057485;28;8773;-65
2022/04/24 06:01:05;;;;;;;;;35.25;30.75;34.10;99.40;;;;;;5040842;28;8766;-65
2022/04/24 06:03:31;;;;;;;;;31.75;29.25;34.10;98.50;;;;;;5057821;28;8789;-65
2022/04/24 06:05:58;;;;;;;;;41.25;34.50;34.10;99.20;;;;;;5058328;28;8751;-65
2022/04/24 06:08:25;;;;;;;;;37.50;33.75;34.20;98.70;;;;;;5057621;28;8816;-65
2022/04/24 06:10:51;;;;;;;;;30.00;24.25;34.30;98.70;;;;;;5040334;28;8765;-65
2022/04/24 06:13:18;;;;;;;;;38.75;34.25;34.70;96.90;;;;;;5023895;28;8779;-65
2022/04/24 06:15:45;;;;;;;;;40.75;31.75;34.10;96.80;;;;;;5023568;28;8806;-65
2022/04/24 06:18:11;;;;;;;;;34.75;30.75;34.50;96.80;;;;;;5057318;28;8770;-65
2022/04/24 06:20:39;;;;;;;;;39.50;35.00;34.00;97.40;;;;;;5057503;28;8775;-66
2022/04/24 06:23:05;;;;;;;;;41.25;34.25;34.40;97.50;;;;;;5056989;28;8889;-65
2022/04/24 06:25:33;;;;;;;;;34.50;30.25;34.60;97.30;;;;;;5057270;28;8731;-65
2022/04/24 06:28:00;;;;;;;;;43.00;33.00;34.70;96.20;;;;;;5040455;28;8763;-66
2022/04/24 06:30:28;;;;;;;;;41.50;34.00;34.70;97.10;;;;;;5039905;28;8770;-65
2022/04/24 06:32:56;;;;;;;;;41.75;34.25;34.90;96.40;;;;;;5057801;28;8771;-65
2022/04/24 06:35:23;;;;;;;;;38.75;33.25;34.70;96.20;;;;;;5039690;28;8810;-65
2022/04/24 06:37:53;;;;;;;;;43.75;34.25;34.40;96.20;;;;;;5057246;28;8759;-65
2022/04/24 06:40:20;;;;;;;;;47.00;35.25;34.40;97.40;;;;;;5057653;28;8769;-65
2022/04/24 06:42:49;;;;;;;;;42.25;34.75;34.90;96.20;;;;;;5057268;28;8786;-65
2022/04/24 06:45:17;;;;;;;;;42.50;35.00;35.00;96.00;;;;;;5057570;28;8885;-65
2022/04/24 06:47:45;;;;;;;;;36.75;32.25;34.70;95.50;;;;;;5057480;28;8807;-65
2022/04/24 06:50:12;;;;;;;;;38.50;30.00;35.00;95.40;;;;;;5057184;28;8789;-65
2022/04/24 06:52:39;;;;;;;;;35.75;32.25;34.50;96.20;;;;;;5038572;28;8754;-64
2022/04/24 06:55:06;;;;;;;;;36.33;32.67;34.20;95.20;;;;;;5057444;28;8865;-65
2022/04/24 06:57:33;;;;;;;;;41.00;34.75;34.00;97.20;;;;;;5056628;28;9454;-65
2022/04/24 07:00:00;;;;;;;;;45.75;38.00;34.20;96.60;;;;;;5057038;28;8833;-65
2022/04/24 07:02:27;;;;;;;;;37.75;32.25;34.30;96.10;;;;;;5056692;28;8755;-65
2022/04/24 07:04:53;;;;;;;;;39.00;34.50;34.80;95.50;;;;;;5039046;28;8865;-66
2022/04/24 07:07:20;;;;;;;;;40.50;31.25;34.80;95.50;;;;;;5057162;28;8775;-65
2022/04/24 07:09:46;;;;;;;;;38.75;32.75;34.60;96.20;;;;;;5056760;28;8750;-65
2022/04/24 07:12:13;;;;;;;;;40.50;34.75;34.60;94.80;;;;;;5056616;28;9384;-65
2022/04/24 07:14:40;;;;;;;;;42.50;35.50;34.80;95.00;;;;;;5056723;28;8759;-66
2022/04/24 07:17:06;;;;;;;;;40.25;34.00;35.10;94.50;;;;;;5056905;28;8854;-65
2022/04/24 07:19:33;;;;;;;;;39.25;34.25;35.40;94.90;;;;;;5056640;28;8738;-65
2022/04/24 07:22:00;;;;;;;;;37.50;30.50;35.20;94.00;;;;;;5057191;28;8873;-65
2022/04/24 07:24:26;;;;;;;;;42.75;34.00;35.40;94.40;;;;;;5056512;28;8773;-65
2022/04/24 07:26:54;;;;;;;;;44.00;34.75;35.00;93.50;;;;;;5038890;28;8711;-65
2022/04/24 07:29:20;;;;;;;;;34.50;32.00;35.10;93.90;;;;;;5056368;28;8777;-65
2022/04/24 07:31:47;;;;;;;;;37.00;31.50;35.40;92.80;;;;;;5056211;28;8766;-65
2022/04/24 07:34:13;;;;;;;;;35.00;28.50;35.20;93.00;;;;;;5057443;28;8856;-65
2022/04/24 07:36:40;;;;;;;;;38.75;33.25;35.10;92.20;;;;;;5056293;28;8921;-65
2022/04/24 07:39:07;;;;;;;;;41.50;32.25;35.40;93.20;;;;;;5029208;28;8795;-65
2022/04/24 07:41:34;;;;;;;;;37.75;33.25;36.10;92.50;;;;;;5038019;28;8775;-65
2022/04/24 07:44:00;;;;;;;;;41.00;33.50;35.90;91.80;;;;;;5056316;28;8771;-63
2022/04/24 07:46:27;;;;;;;;;31.25;29.25;35.80;92.30;;;;;;5039122;28;9420;-65
2022/04/24 07:48:54;;;;;;;;;40.00;33.25;35.70;92.70;;;;;;5056943;28;8751;-65
2022/04/24 07:51:20;;;;;;;;;34.25;30.25;35.30;93.10;;;;;;5038543;28;8771;-64
2022/04/24 07:53:47;;;;;;;;;39.50;33.00;35.40;93.50;;;;;;5021710;28;8762;-65
2022/04/24 07:56:14;;;;;;;;;35.67;32.00;35.60;92.30;;;;;;5038562;28;8880;-65
2022/04/24 07:58:40;;;;;;;;;39.75;32.00;35.70;92.50;;;;;;5038433;28;8747;-65
2022/04/24 08:01:07;;;;;;;;;36.00;31.25;35.60;92.40;;;;;;5039046;28;8755;-65
2022/04/24 08:03:37;;;;;;;;;36.00;32.00;35.40;91.70;;;;;;5055702;28;8755;-65
2022/04/24 08:06:04;;;;;;;;;38.25;31.75;35.50;92.30;;;;;;5042118;28;8790;-65
2022/04/24 08:08:30;;;;;;;;;35.75;30.75;35.70;91.60;;;;;;5059855;28;8809;-65
2022/04/24 08:10:58;;;;;;;;;30.50;28.25;35.20;92.60;;;;;;5025986;28;8747;-65
2022/04/24 08:13:25;;;;;;;;;29.50;28.75;36.00;91.80;;;;;;5059607;28;8782;-60
2022/04/24 08:15:56;;;;;;;;;41.00;34.00;35.90;91.10;;;;;;5042668;28;8786;-65
2022/04/24 08:18:23;;;;;;;;;36.50;32.75;35.30;91.10;;;;;;5042320;28;8758;-65
2022/04/24 08:20:49;;;;;;;;;35.75;30.00;35.00;91.00;;;;;;5039702;28;8776;-65
2022/04/24 08:23:16;;;;;;;;;42.25;33.00;34.80;91.30;;;;;;5053078;28;8765;-65
2022/04/24 08:25:43;;;;;;;;;41.50;33.25;34.60;91.90;;;;;;5059815;28;9452;-65
2022/04/24 08:28:11;;;;;;;;;39.75;33.00;34.50;92.10;;;;;;5060504;28;8783;-65
2022/04/24 08:30:42;;;;;;;;;44.50;35.00;34.50;92.20;;;;;;5059658;28;8777;-65
2022/04/24 08:33:09;;;;;;;;;28.00;24.75;34.70;91.20;;;;;;5060035;28;8760;-65
2022/04/24 08:35:36;;;;;;;;;35.75;31.75;34.70;91.00;;;;;;5059627;28;8774;-65
2022/04/24 08:38:02;;;;;;;;;42.00;32.75;34.60;90.50;;;;;;5032534;28;8779;-65
2022/04/24 08:40:29;;;;;;;;;31.00;30.00;34.70;91.00;;;;;;5019716;28;8850;-64
2022/04/24 08:42:56;;;;;;;;;33.00;31.25;34.70;91.40;;;;;;5020598;28;8727;-65
2022/04/24 08:45:30;;;;;;;;;41.00;32.50;34.60;90.40;;;;;;5034704;28;8767;-65
2022/04/24 08:47:57;;;;;;;;;33.25;30.00;34.80;89.30;;;;;;5019683;28;8739;-65
2022/04/24 08:50:27;;;;;;;;;37.75;31.00;34.60;90.30;;;;;;5019881;28;8799;-65
2022/04/24 08:52:56;;;;;;;;;36.75;32.00;34.50;90.80;;;;;;5021195;28;8796;-65
2022/04/24 08:55:24;;;;;;;;;31.50;27.25;34.50;90.70;;;;;;5000322;28;9437;-65
2022/04/24 08:57:50;;;;;;;;;33.25;30.25;34.60;91.70;;;;;;5003017;28;8755;-66
2022/04/24 09:00:18;;;;;;;;;37.75;31.25;34.60;90.50;;;;;;5004276;28;8764;-65
2022/04/24 09:02:45;;;;;;;;;41.00;32.00;34.70;90.70;;;;;;4999817;28;8754;-65
2022/04/24 09:05:12;;;;;;;;;37.25;31.25;34.50;90.30;;;;;;5014844;28;8766;-65
2022/04/24 09:07:39;;;;;;;;;36.00;31.75;34.30;90.20;;;;;;5029957;28;8770;-65
2022/04/24 09:10:09;;;;;;;;;33.75;30.75;34.10;90.90;;;;;;5059789;28;9493;-65
2022/04/24 09:12:36;;;;;;;;;35.25;30.00;34.30;90.90;;;;;;5057904;28;10799;-65
2022/04/24 09:15:02;;;;;;;;;38.50;31.00;34.50;91.90;;;;;;5057433;28;8770;-65
2022/04/24 09:17:30;;;;;;;;;35.50;32.00;34.50;90.50;;;;;;5057485;28;8835;-65
2022/04/24 09:19:57;;;;;;;;;39.25;31.25;34.50;90.80;;;;;;5071885;28;8771;-65
2022/04/24 09:22:24;;;;;;;;;34.25;31.50;34.70;90.70;;;;;;5062725;28;8786;-65
2022/04/24 09:24:55;;;;;;;;;36.25;30.75;34.50;90.00;;;;;;5039043;28;8716;-65
2022/04/24 09:27:27;;;;;;;;;38.75;33.25;34.50;89.90;;;;;;5037378;28;8805;-65
2022/04/24 09:29:55;;;;;;;;;38.75;31.00;34.40;90.00;;;;;;5037909;28;8733;-65
2022/04/24 09:32:23;;;;;;;;;34.00;31.25;34.50;89.90;;;;;;5037741;28;8756;-65
2022/04/24 09:34:50;;;;;;;;;40.75;32.25;34.70;89.90;;;;;;5038115;28;9899;-65
2022/04/24 09:37:17;;;;;;;;;36.00;30.00;34.70;88.80;;;;;;5030321;28;8747;-64
2022/04/24 09:39:44;;;;;;;;;35.50;30.75;34.60;89.50;;;;;;5018751;28;8766;-65
2022/04/24 09:42:18;;;;;;;;;41.00;33.25;34.50;90.10;;;;;;5019344;28;8861;-65
2022/04/24 09:44:48;;;;;;;;;38.75;32.25;34.40;90.50;;;;;;5019603;28;8869;-65
2022/04/24 09:47:22;;;;;;;;;39.50;34.00;34.20;90.90;;;;;;5019514;28;8841;-65
2022/04/24 09:49:50;;;;;;;;;41.50;33.00;34.10;91.00;;;;;;5019207;28;8770;-65
2022/04/24 09:52:22;;;;;;;;;43.00;34.50;34.20;91.10;;;;;;5028038;28;8733;-62
2022/04/24 09:54:53;;;;;;;;;39.50;34.50;34.30;90.40;;;;;;5038235;28;8732;-65
2022/04/24 09:57:23;;;;;;;;;37.75;32.50;34.30;91.30;;;;;;5038130;28;8792;-64
2022/04/24 09:59:53;;;;;;;;;40.75;34.25;34.40;91.90;;;;;;5053371;28;9543;-65
2022/04/24 10:02:20;;;;;;;;;36.50;30.25;34.50;90.60;;;;;;5036560;28;8842;-64
2022/04/24 10:04:47;;;;;;;;;39.75;33.50;34.50;90.50;;;;;;5038268;28;8810;-65
2022/04/24 10:07:19;;;;;;;;;44.25;33.50;34.50;90.60;;;;;;5030372;28;8771;-65
2022/04/24 10:09:47;;;;;;;;;39.00;31.75;34.30;90.70;;;;;;5018300;28;8871;-65
2022/04/24 10:12:18;;;;;;;;;37.50;29.00;34.20;91.70;;;;;;5018304;28;8743;-65
2022/04/24 10:14:57;;;;;;;;;40.00;31.50;34.10;92.40;;;;;;5017903;28;8790;-65
2022/04/24 10:17:55;;;;;;;;;35.00;32.25;34.00;91.70;;;;;;5016717;28;8786;-65
2022/04/24 10:20:49;;;;;;;;;3.25;2.00;34.10;90.80;;;;;;5018079;28;9021;-65
2022/04/24 10:23:26;;;;;;;;;39.00;33.00;34.10;91.00;;;;;;5034573;28;8756;-65
2022/04/24 10:25:53;;;;;;;;;31.75;28.75;34.00;91.40;;;;;;5036485;28;8760;-65
2022/04/24 10:28:20;;;;;;;;;44.00;33.50;34.10;90.20;;;;;;5036523;28;8769;-64
2022/04/24 10:31:03;;;;;;;;;38.00;30.50;34.10;92.90;;;;;;5037828;28;8759;-65
2022/04/24 10:33:34;;;;;;;;;36.75;31.50;34.00;91.20;;;;;;5037416;28;8817;-65
2022/04/24 10:36:03;;;;;;;;;31.75;28.00;34.00;91.40;;;;;;5037784;28;8783;-65
2022/04/24 10:38:32;;;;;;;;;40.00;33.00;33.90;91.80;;;;;;5033722;28;8774;-65
2022/04/24 10:41:06;;;;;;;;;36.50;31.50;34.00;90.40;;;;;;5016652;28;8770;-65
2022/04/24 10:44:02;;;;;;;;;35.50;32.00;33.90;91.60;;;;;;5017452;28;8735;-66
2022/04/24 10:46:33;;;;;;;;;39.50;32.50;33.90;91.20;;;;;;5013300;28;8763;-65
2022/04/24 10:49:13;;;;;;;;;37.75;32.25;33.90;91.80;;;;;;5017416;28;8754;-65
2022/04/24 10:51:41;;;;;;;;;42.50;35.25;33.70;93.50;;;;;;5021148;28;8784;-65
2022/04/24 10:54:14;;;;;;;;;40.75;35.00;33.70;93.60;;;;;;5037458;28;8771;-65
2022/04/24 10:56:49;;;;;;;;;38.00;33.00;33.60;94.10;;;;;;5037579;28;9425;-65
2022/04/24 10:59:18;;;;;;;;;41.25;34.00;33.60;92.80;;;;;;5036220;28;8752;-65
2022/04/24 11:01:52;;;;;;;;;40.75;35.50;33.60;93.70;;;;;;5037069;28;8800;-65
2022/04/24 11:04:19;;;;;;;;;40.25;33.25;33.60;95.10;;;;;;5036919;28;8744;-65
2022/04/24 11:06:57;;;;;;;;;44.75;35.25;33.60;94.50;;;;;;5033195;28;8791;-65
2022/04/24 11:09:24;;;;;;;;;43.25;32.50;33.50;94.90;;;;;;5017430;28;8778;-66
2022/04/24 11:11:58;;;;;;;;;38.50;32.75;33.50;94.60;;;;;;5017265;28;8850;-65
2022/04/24 11:14:26;;;;;;;;;41.00;34.00;33.50;94.50;;;;;;5017797;28;8802;-66
2022/04/24 11:17:00;;;;;;;;;38.75;33.00;33.50;94.90;;;;;;5016510;28;8769;-66
2022/04/24 11:19:36;;;;;;;;;42.25;35.25;33.50;95.50;;;;;;5016040;28;8814;-64
2022/04/24 11:22:06;;;;;;;;;38.25;32.00;33.40;96.10;;;;;;5023764;28;8792;-66
2022/04/24 11:24:34;;;;;;;;;43.00;35.25;33.40;96.40;;;;;;5035971;28;9432;-65
2022/04/24 11:27:14;;;;;;;;;44.75;36.25;33.40;96.30;;;;;;5035782;28;8761;-65
2022/04/24 11:29:43;;;;;;;;;44.50;37.00;33.30;96.10;;;;;;5036998;28;8794;-65
2022/04/24 11:32:11;;;;;;;;;42.75;36.50;33.40;96.70;;;;;;5035299;28;8792;-66
2022/04/24 11:34:38;;;;;;;;;49.25;37.75;33.30;96.90;;;;;;5036520;28;8772;-66
2022/04/24 11:37:09;;;;;;;;;54.25;42.00;33.30;96.70;;;;;;5030254;28;8807;-65
2022/04/24 11:39:38;;;;;;;;;51.75;42.75;33.30;96.00;;;;;;5015935;28;8758;-65
2022/04/24 11:42:05;;;;;;;;;53.20;43.20;33.30;95.50;;;;;;5016880;28;8782;-66
2022/04/24 11:50:14;;;;;;;;;48.50;37.00;33.30;95.30;;;;;;5036731;28;8776;-66
2022/04/24 11:52:48;;;;;;;;;44.50;36.00;33.30;95.70;;;;;;5028674;28;8791;-65
2022/04/24 11:55:21;;;;;;;;;47.25;37.50;33.20;96.90;;;;;;5036289;28;8756;-65
2022/04/24 11:57:58;;;;;;;;;46.25;35.00;33.20;97.30;;;;;;5035492;28;8772;-65
2022/04/24 12:00:45;;;;;;;;;41.00;35.00;33.10;96.90;;;;;;5036101;28;8788;-65
2022/04/24 12:03:12;;;;;;;;;35.25;31.75;33.10;96.50;;;;;;5036233;28;8773;-65
2022/04/24 12:05:38;;;;;;;;;46.75;39.00;33.10;96.90;;;;;;5028299;28;8817;-65
2022/04/24 12:08:05;;;;;;;;;46.25;38.25;33.10;96.90;;;;;;5033851;28;8885;-65
2022/04/24 12:10:32;;;;;;;;;51.75;41.50;33.10;96.70;;;;;;4998822;28;8742;-66
2022/04/24 12:13:06;;;;;;;;;49.00;39.75;33.10;96.40;;;;;;4999706;28;8745;-66
2022/04/24 12:15:34;;;;;;;;;50.00;38.25;33.10;96.10;;;;;;4998803;28;8771;-66
2022/04/24 12:18:01;;;;;;;;;48.00;38.00;33.00;96.00;;;;;;4999169;28;8771;-66
2022/04/24 12:20:38;;;;;;;;;49.25;40.25;33.10;96.40;;;;;;4995393;28;8794;-66
2022/04/24 12:23:12;;;;;;;;;44.75;36.25;33.00;98.00;;;;;;5010677;28;8775;-66
2022/04/24 12:25:54;;;;;;;;;48.75;39.00;32.90;99.10;;;;;;5014791;28;8811;-66
2022/04/24 12:28:41;;;;;;;;;50.75;41.00;32.90;97.00;;;;;;5017019;28;9477;-65
2022/04/24 12:31:19;;;;;;;;;62.20;45.80;32.80;98.00;;;;;;5017390;28;8743;-66
2022/04/24 12:33:49;;;;;;;;;54.60;42.60;32.70;99.30;;;;;;5051176;28;8800;-66
2022/04/24 12:36:16;;;;;;;;;57.25;45.00;32.60;99.90;;;;;;5036554;28;8756;-66
2022/04/24 12:38:56;;;;;;;;;54.00;42.00;32.60;99.90;;;;;;5016527;28;9463;-66
2022/04/24 12:41:25;;;;;;;;;57.25;43.75;32.60;99.60;;;;;;5016360;28;9109;-65
2022/04/24 12:43:52;;;;;;;;;54.00;43.00;32.60;99.90;;;;;;5016399;28;8773;-66
2022/04/24 12:46:19;;;;;;;;;53.75;39.75;32.60;99.50;;;;;;5017029;28;8938;-65
2022/04/24 12:48:49;;;;;;;;;56.25;43.75;32.60;98.40;;;;;;5016513;28;8793;-66